sensor_id;sensor_type;location;lat;lon;timestamp;temperature;humidity
19174;DHT22;9719;49.322;8.536;2023-05-20T00:03:43;16.90;84.70
19174;DHT22;9719;49.322;8.536;2023-05-20T00:08:45;16.90;85.20
19174;DHT22;9719;49.322;8.536;2023-05-20T00:13:47;16.90;85.40
19174;DHT22;9719;49.322;8.536;2023-05-20T00:18:50;16.90;85.80
19174;DHT22;9719;49.322;8.536;2023-05-20T00:23:52;16.80;86.60
19174;DHT22;9719;49.322;8.536;2023-05-20T00:28:53;16.80;86.80
19174;DHT22;9719;49.322;8.536;2023-05-20T00:33:56;16.80;87.20
19174;DHT22;9719;49.322;8.536;2023-05-20T00:38:58;16.70;88.00
19174;DHT22;9719;49.322;8.536;2023-05-20T00:44:00;16.70;88.80
19174;DHT22;9719;49.322;8.536;2023-05-20T00:49:03;16.60;89.20
19174;DHT22;9719;49.322;8.536;2023-05-20T00:54:05;16.70;90.10
19174;DHT22;9719;49.322;8.536;2023-05-20T00:59:07;16.70;90.20
19174;DHT22;9719;49.322;8.536;2023-05-20T01:04:10;16.70;90.60
19174;DHT22;9719;49.322;8.536;2023-05-20T01:09:12;16.70;90.80
19174;DHT22;9719;49.322;8.536;2023-05-20T01:14:15;16.70;91.20
19174;DHT22;9719;49.322;8.536;2023-05-20T01:19:26;16.70;91.50
19174;DHT22;9719;49.322;8.536;2023-05-20T01:24:30;16.60;92.20
19174;DHT22;9719;49.322;8.536;2023-05-20T01:29:32;16.50;92.50
19174;DHT22;9719;49.322;8.536;2023-05-20T01:34:34;16.30;92.70
19174;DHT22;9719;49.322;8.536;2023-05-20T01:39:39;16.10;93.30
19174;DHT22;9719;49.322;8.536;2023-05-20T01:44:42;15.90;93.90
19174;DHT22;9719;49.322;8.536;2023-05-20T01:49:44;15.70;94.20
19174;DHT22;9719;49.322;8.536;2023-05-20T01:54:48;15.60;94.80
19174;DHT22;9719;49.322;8.536;2023-05-20T01:59:51;15.40;95.40
19174;DHT22;9719;49.322;8.536;2023-05-20T02:04:53;15.30;96.30
19174;DHT22;9719;49.322;8.536;2023-05-20T02:09:56;15.20;97.30
19174;DHT22;9719;49.322;8.536;2023-05-20T02:14:58;15.10;97.30
19174;DHT22;9719;49.322;8.536;2023-05-20T02:20:00;15.00;98.10
19174;DHT22;9719;49.322;8.536;2023-05-20T02:25:07;14.90;98.60
19174;DHT22;9719;49.322;8.536;2023-05-20T02:30:09;14.90;99.70
19174;DHT22;9719;49.322;8.536;2023-05-20T02:35:11;14.80;99.90
19174;DHT22;9719;49.322;8.536;2023-05-20T02:40:14;14.80;99.90
19174;DHT22;9719;49.322;8.536;2023-05-20T02:45:16;14.70;99.90
19174;DHT22;9719;49.322;8.536;2023-05-20T02:50:17;14.60;99.90
19174;DHT22;9719;49.322;8.536;2023-05-20T02:55:20;14.60;99.90
19174;DHT22;9719;49.322;8.536;2023-05-20T03:00:23;14.60;99.90
19174;DHT22;9719;49.322;8.536;2023-05-20T03:05:24;14.60;99.90
19174;DHT22;9719;49.322;8.536;2023-05-20T03:10:28;14.50;99.90
19174;DHT22;9719;49.322;8.536;2023-05-20T03:15:29;14.60;99.90
19174;DHT22;9719;49.322;8.536;2023-05-20T03:20:31;14.60;99.90
19174;DHT22;9719;49.322;8.536;2023-05-20T03:25:35;14.60;99.90
19174;DHT22;9719;49.322;8.536;2023-05-20T03:30:37;14.60;99.90
19174;DHT22;9719;49.322;8.536;2023-05-20T03:35:38;14.60;99.90
19174;DHT22;9719;49.322;8.536;2023-05-20T03:40:41;14.60;99.90
19174;DHT22;9719;49.322;8.536;2023-05-20T03:45:43;14.70;99.90
19174;DHT22;9719;49.322;8.536;2023-05-20T03:50:45;14.70;99.90
19174;DHT22;9719;49.322;8.536;2023-05-20T03:55:48;14.70;99.90
19174;DHT22;9719;49.322;8.536;2023-05-20T04:00:49;14.70;99.90
19174;DHT22;9719;49.322;8.536;2023-05-20T04:05:51;14.70;99.90
19174;DHT22;9719;49.322;8.536;2023-05-20T04:10:56;14.70;99.90
19174;DHT22;9719;49.322;8.536;2023-05-20T04:15:58;14.80;99.90
19174;DHT22;9719;49.322;8.536;2023-05-20T04:21:00;14.80;99.90
19174;DHT22;9719;49.322;8.536;2023-05-20T04:26:03;14.80;99.90
19174;DHT22;9719;49.322;8.536;2023-05-20T04:31:05;14.90;99.90
19174;DHT22;9719;49.322;8.536;2023-05-20T04:36:09;15.00;99.90
19174;DHT22;9719;49.322;8.536;2023-05-20T04:41:12;15.10;99.90
19174;DHT22;9719;49.322;8.536;2023-05-20T04:46:15;15.20;99.90
19174;DHT22;9719;49.322;8.536;2023-05-20T04:51:17;15.30;99.90
19174;DHT22;9719;49.322;8.536;2023-05-20T04:56:20;15.40;99.90
19174;DHT22;9719;49.322;8.536;2023-05-20T05:01:21;15.50;99.90
19174;DHT22;9719;49.322;8.536;2023-05-20T05:06:23;15.50;99.90
19174;DHT22;9719;49.322;8.536;2023-05-20T05:11:26;15.60;99.90
19174;DHT22;9719;49.322;8.536;2023-05-20T05:16:28;15.70;99.90
19174;DHT22;9719;49.322;8.536;2023-05-20T05:21:32;15.80;99.90
19174;DHT22;9719;49.322;8.536;2023-05-20T05:26:35;15.90;99.90
19174;DHT22;9719;49.322;8.536;2023-05-20T05:31:37;16.10;99.90
19174;DHT22;9719;49.322;8.536;2023-05-20T05:36:39;16.30;99.90
19174;DHT22;9719;49.322;8.536;2023-05-20T05:41:44;16.60;99.90
19174;DHT22;9719;49.322;8.536;2023-05-20T05:46:46;16.80;99.90
19174;DHT22;9719;49.322;8.536;2023-05-20T05:51:48;16.90;99.90
19174;DHT22;9719;49.322;8.536;2023-05-20T05:56:52;17.20;99.90
19174;DHT22;9719;49.322;8.536;2023-05-20T06:01:53;17.30;99.90
19174;DHT22;9719;49.322;8.536;2023-05-20T06:06:55;17.50;99.90
19174;DHT22;9719;49.322;8.536;2023-05-20T06:11:58;17.80;99.90
19174;DHT22;9719;49.322;8.536;2023-05-20T06:17:00;18.10;99.90
19174;DHT22;9719;49.322;8.536;2023-05-20T06:22:02;18.20;99.90
19174;DHT22;9719;49.322;8.536;2023-05-20T06:27:05;18.30;99.90
19174;DHT22;9719;49.322;8.536;2023-05-20T06:32:07;18.50;99.90
19174;DHT22;9719;49.322;8.536;2023-05-20T06:37:09;18.80;99.90
19174;DHT22;9719;49.322;8.536;2023-05-20T06:42:12;19.10;99.90
19174;DHT22;9719;49.322;8.536;2023-05-20T06:47:15;19.40;99.90
19174;DHT22;9719;49.322;8.536;2023-05-20T06:52:16;19.60;99.90
19174;DHT22;9719;49.322;8.536;2023-05-20T06:57:19;19.70;99.90
19174;DHT22;9719;49.322;8.536;2023-05-20T07:02:21;19.70;99.90
19174;DHT22;9719;49.322;8.536;2023-05-20T07:07:23;19.80;99.90
19174;DHT22;9719;49.322;8.536;2023-05-20T07:12:26;19.80;99.90
19174;DHT22;9719;49.322;8.536;2023-05-20T07:17:28;19.80;99.80
19174;DHT22;9719;49.322;8.536;2023-05-20T07:22:30;19.60;98.90
19174;DHT22;9719;49.322;8.536;2023-05-20T07:27:33;19.30;99.80
19174;DHT22;9719;49.322;8.536;2023-05-20T07:32:34;19.30;99.90
19174;DHT22;9719;49.322;8.536;2023-05-20T07:37:36;19.30;99.90
19174;DHT22;9719;49.322;8.536;2023-05-20T07:42:39;19.50;99.90
19174;DHT22;9719;49.322;8.536;2023-05-20T07:47:41;19.70;99.90
19174;DHT22;9719;49.322;8.536;2023-05-20T07:52:45;20.00;99.90
19174;DHT22;9719;49.322;8.536;2023-05-20T07:57:48;20.40;99.50
19174;DHT22;9719;49.322;8.536;2023-05-20T08:02:50;20.70;98.10
19174;DHT22;9719;49.322;8.536;2023-05-20T08:07:52;21.00;98.60
19174;DHT22;9719;49.322;8.536;2023-05-20T08:12:55;21.20;97.20
19174;DHT22;9719;49.322;8.536;2023-05-20T08:17:56;21.30;97.20
19174;DHT22;9719;49.322;8.536;2023-05-20T08:22:58;21.50;96.20
19174;DHT22;9719;49.322;8.536;2023-05-20T08:28:01;21.80;95.20
19174;DHT22;9719;49.322;8.536;2023-05-20T08:33:05;22.10;93.80
19174;DHT22;9719;49.322;8.536;2023-05-20T08:38:07;22.70;93.60
19174;DHT22;9719;49.322;8.536;2023-05-20T08:43:10;23.20;92.50
19174;DHT22;9719;49.322;8.536;2023-05-20T08:48:11;23.50;90.70
19174;DHT22;9719;49.322;8.536;2023-05-20T08:53:13;23.60;90.30
19174;DHT22;9719;49.322;8.536;2023-05-20T08:58:16;23.50;88.50
19174;DHT22;9719;49.322;8.536;2023-05-20T09:03:18;23.50;87.60
19174;DHT22;9719;49.322;8.536;2023-05-20T09:08:24;23.60;88.10
19174;DHT22;9719;49.322;8.536;2023-05-20T09:13:29;23.50;85.90
19174;DHT22;9719;49.322;8.536;2023-05-20T09:18:31;23.50;85.20
19174;DHT22;9719;49.322;8.536;2023-05-20T09:23:36;23.70;85.00
19174;DHT22;9719;49.322;8.536;2023-05-20T09:28:39;24.00;85.40
19174;DHT22;9719;49.322;8.536;2023-05-20T09:33:42;23.90;85.10
19174;DHT22;9719;49.322;8.536;2023-05-20T09:38:44;23.90;84.40
19174;DHT22;9719;49.322;8.536;2023-05-20T09:43:49;23.70;83.10
19174;DHT22;9719;49.322;8.536;2023-05-20T09:48:51;23.70;82.50
19174;DHT22;9719;49.322;8.536;2023-05-20T09:53:54;23.80;82.60
19174;DHT22;9719;49.322;8.536;2023-05-20T09:58:58;24.10;82.60
19174;DHT22;9719;49.322;8.536;2023-05-20T10:04:03;24.50;81.60
19174;DHT22;9719;49.322;8.536;2023-05-20T10:09:23;24.70;80.90
19174;DHT22;9719;49.322;8.536;2023-05-20T10:14:40;24.60;79.20
19174;DHT22;9719;49.322;8.536;2023-05-20T10:19:44;24.50;78.30
19174;DHT22;9719;49.322;8.536;2023-05-20T10:30:18;24.30;76.30
19174;DHT22;9719;49.322;8.536;2023-05-20T10:35:22;24.40;77.40
19174;DHT22;9719;49.322;8.536;2023-05-20T10:40:25;24.30;76.90
19174;DHT22;9719;49.322;8.536;2023-05-20T10:45:29;24.30;77.60
19174;DHT22;9719;49.322;8.536;2023-05-20T10:50:33;24.50;77.00
19174;DHT22;9719;49.322;8.536;2023-05-20T10:55:36;25.20;76.00
19174;DHT22;9719;49.322;8.536;2023-05-20T11:00:41;25.50;74.60
19174;DHT22;9719;49.322;8.536;2023-05-20T11:05:44;25.50;74.30
19174;DHT22;9719;49.322;8.536;2023-05-20T11:10:46;25.40;73.10
19174;DHT22;9719;49.322;8.536;2023-05-20T11:15:49;25.50;72.50
19174;DHT22;9719;49.322;8.536;2023-05-20T11:20:51;25.40;72.50
19174;DHT22;9719;49.322;8.536;2023-05-20T11:25:55;25.50;72.40
19174;DHT22;9719;49.322;8.536;2023-05-20T11:30:58;25.80;73.30
19174;DHT22;9719;49.322;8.536;2023-05-20T11:36:01;26.10;71.90
19174;DHT22;9719;49.322;8.536;2023-05-20T11:41:02;26.00;71.40
19174;DHT22;9719;49.322;8.536;2023-05-20T11:46:06;25.90;69.70
19174;DHT22;9719;49.322;8.536;2023-05-20T11:51:07;26.50;70.50
19174;DHT22;9719;49.322;8.536;2023-05-20T11:56:09;26.70;69.30
19174;DHT22;9719;49.322;8.536;2023-05-20T12:01:12;26.90;68.80
19174;DHT22;9719;49.322;8.536;2023-05-20T12:06:14;26.70;67.80
19174;DHT22;9719;49.322;8.536;2023-05-20T12:11:17;26.50;67.20
19174;DHT22;9719;49.322;8.536;2023-05-20T12:16:20;26.30;67.60
19174;DHT22;9719;49.322;8.536;2023-05-20T12:21:21;26.20;68.40
19174;DHT22;9719;49.322;8.536;2023-05-20T12:26:23;26.10;67.30
19174;DHT22;9719;49.322;8.536;2023-05-20T12:31:27;25.80;67.40
19174;DHT22;9719;49.322;8.536;2023-05-20T12:36:29;25.70;67.70
19174;DHT22;9719;49.322;8.536;2023-05-20T12:41:30;25.80;67.80
19174;DHT22;9719;49.322;8.536;2023-05-20T12:46:34;26.20;67.30
19174;DHT22;9719;49.322;8.536;2023-05-20T12:51:36;26.30;66.90
19174;DHT22;9719;49.322;8.536;2023-05-20T12:56:37;26.30;67.00
19174;DHT22;9719;49.322;8.536;2023-05-20T13:01:41;26.50;67.00
19174;DHT22;9719;49.322;8.536;2023-05-20T13:06:42;26.40;67.40
19174;DHT22;9719;49.322;8.536;2023-05-20T13:11:44;26.20;66.40
19174;DHT22;9719;49.322;8.536;2023-05-20T13:16:48;26.20;67.00
19174;DHT22;9719;49.322;8.536;2023-05-20T13:21:53;26.50;67.30
19174;DHT22;9719;49.322;8.536;2023-05-20T13:26:55;26.90;67.60
19174;DHT22;9719;49.322;8.536;2023-05-20T13:31:58;26.90;66.70
19174;DHT22;9719;49.322;8.536;2023-05-20T13:36:59;26.60;66.00
19174;DHT22;9719;49.322;8.536;2023-05-20T13:42:01;26.30;66.70
19174;DHT22;9719;49.322;8.536;2023-05-20T13:47:05;26.00;67.00
19174;DHT22;9719;49.322;8.536;2023-05-20T13:52:06;25.80;67.20
19174;DHT22;9719;49.322;8.536;2023-05-20T13:57:08;25.90;68.30
19174;DHT22;9719;49.322;8.536;2023-05-20T14:02:11;25.80;67.60
19174;DHT22;9719;49.322;8.536;2023-05-20T14:07:13;25.40;67.00
19174;DHT22;9719;49.322;8.536;2023-05-20T14:12:14;25.70;68.60
19174;DHT22;9719;49.322;8.536;2023-05-20T14:17:17;25.90;69.00
19174;DHT22;9719;49.322;8.536;2023-05-20T14:22:19;26.10;69.00
19174;DHT22;9719;49.322;8.536;2023-05-20T14:27:21;25.90;67.70
19174;DHT22;9719;49.322;8.536;2023-05-20T14:32:24;25.80;68.50
19174;DHT22;9719;49.322;8.536;2023-05-20T14:37:25;25.70;69.60
19174;DHT22;9719;49.322;8.536;2023-05-20T14:42:27;25.80;69.10
19174;DHT22;9719;49.322;8.536;2023-05-20T14:47:30;25.60;69.70
19174;DHT22;9719;49.322;8.536;2023-05-20T14:52:32;25.60;69.90
19174;DHT22;9719;49.322;8.536;2023-05-20T14:57:34;25.50;69.60
19174;DHT22;9719;49.322;8.536;2023-05-20T15:02:37;25.20;70.00
19174;DHT22;9719;49.322;8.536;2023-05-20T15:07:38;25.00;70.20
19174;DHT22;9719;49.322;8.536;2023-05-20T15:12:40;24.70;70.80
19174;DHT22;9719;49.322;8.536;2023-05-20T15:17:43;24.50;71.50
19174;DHT22;9719;49.322;8.536;2023-05-20T15:22:45;24.50;72.30
19174;DHT22;9719;49.322;8.536;2023-05-20T15:27:47;24.50;73.40
19174;DHT22;9719;49.322;8.536;2023-05-20T15:32:50;24.70;73.30
19174;DHT22;9719;49.322;8.536;2023-05-20T15:37:52;24.80;72.50
19174;DHT22;9719;49.322;8.536;2023-05-20T15:42:53;24.60;72.30
19174;DHT22;9719;49.322;8.536;2023-05-20T15:47:57;24.60;72.80
19174;DHT22;9719;49.322;8.536;2023-05-20T15:52:59;24.60;73.30
19174;DHT22;9719;49.322;8.536;2023-05-20T15:58:01;24.80;74.00
19174;DHT22;9719;49.322;8.536;2023-05-20T16:03:04;25.00;73.20
19174;DHT22;9719;49.322;8.536;2023-05-20T16:08:05;25.20;73.00
19174;DHT22;9719;49.322;8.536;2023-05-20T16:13:07;25.10;72.60
19174;DHT22;9719;49.322;8.536;2023-05-20T16:18:10;24.90;72.70
19174;DHT22;9719;49.322;8.536;2023-05-20T16:23:12;24.80;73.40
19174;DHT22;9719;49.322;8.536;2023-05-20T16:28:13;24.70;73.80
19174;DHT22;9719;49.322;8.536;2023-05-20T16:33:16;24.70;74.30
19174;DHT22;9719;49.322;8.536;2023-05-20T16:38:18;24.50;75.00
19174;DHT22;9719;49.322;8.536;2023-05-20T16:43:20;24.40;76.60
19174;DHT22;9719;49.322;8.536;2023-05-20T16:48:23;24.40;77.00
19174;DHT22;9719;49.322;8.536;2023-05-20T16:53:26;24.40;77.40
19174;DHT22;9719;49.322;8.536;2023-05-20T16:58:27;24.50;78.00
19174;DHT22;9719;49.322;8.536;2023-05-20T17:03:30;24.50;78.20
19174;DHT22;9719;49.322;8.536;2023-05-20T17:08:32;24.30;78.50
19174;DHT22;9719;49.322;8.536;2023-05-20T17:13:34;24.10;79.00
19174;DHT22;9719;49.322;8.536;2023-05-20T17:18:37;23.90;80.00
19174;DHT22;9719;49.322;8.536;2023-05-20T17:23:39;23.80;80.90
19174;DHT22;9719;49.322;8.536;2023-05-20T17:28:41;23.70;81.30
19174;DHT22;9719;49.322;8.536;2023-05-20T17:33:44;23.50;81.90
19174;DHT22;9719;49.322;8.536;2023-05-20T17:38:45;23.30;82.90
19174;DHT22;9719;49.322;8.536;2023-05-20T17:43:47;23.10;83.40
19174;DHT22;9719;49.322;8.536;2023-05-20T17:48:50;23.00;84.10
19174;DHT22;9719;49.322;8.536;2023-05-20T17:53:52;22.80;85.00
19174;DHT22;9719;49.322;8.536;2023-05-20T17:58:54;22.60;86.10
19174;DHT22;9719;49.322;8.536;2023-05-20T18:03:57;22.50;87.10
19174;DHT22;9719;49.322;8.536;2023-05-20T18:09:03;22.30;88.10
19174;DHT22;9719;49.322;8.536;2023-05-20T18:14:05;22.20;89.10
19174;DHT22;9719;49.322;8.536;2023-05-20T18:19:08;22.10;90.00
19174;DHT22;9719;49.322;8.536;2023-05-20T18:24:09;21.90;90.30
19174;DHT22;9719;49.322;8.536;2023-05-20T18:29:13;21.80;90.80
19174;DHT22;9719;49.322;8.536;2023-05-20T18:34:16;21.70;91.20
19174;DHT22;9719;49.322;8.536;2023-05-20T18:39:17;21.70;91.70
19174;DHT22;9719;49.322;8.536;2023-05-20T18:44:20;21.50;92.10
19174;DHT22;9719;49.322;8.536;2023-05-20T18:49:23;21.40;92.80
19174;DHT22;9719;49.322;8.536;2023-05-20T18:54:24;21.30;93.10
19174;DHT22;9719;49.322;8.536;2023-05-20T18:59:26;21.20;93.50
19174;DHT22;9719;49.322;8.536;2023-05-20T19:04:29;21.10;94.20
19174;DHT22;9719;49.322;8.536;2023-05-20T19:09:31;21.00;94.70
19174;DHT22;9719;49.322;8.536;2023-05-20T19:14:33;20.90;95.30
19174;DHT22;9719;49.322;8.536;2023-05-20T19:19:36;20.80;95.90
19174;DHT22;9719;49.322;8.536;2023-05-20T19:24:37;20.70;96.50
19174;DHT22;9719;49.322;8.536;2023-05-20T19:29:39;20.60;96.80
19174;DHT22;9719;49.322;8.536;2023-05-20T19:34:42;20.50;97.60
19174;DHT22;9719;49.322;8.536;2023-05-20T19:39:44;20.40;98.20
19174;DHT22;9719;49.322;8.536;2023-05-20T19:44:45;20.30;98.90
19174;DHT22;9719;49.322;8.536;2023-05-20T19:49:48;20.30;99.40
19174;DHT22;9719;49.322;8.536;2023-05-20T19:54:50;20.20;99.90
19174;DHT22;9719;49.322;8.536;2023-05-20T19:59:52;20.10;99.90
19174;DHT22;9719;49.322;8.536;2023-05-20T20:04:55;20.00;99.90
19174;DHT22;9719;49.322;8.536;2023-05-20T20:09:58;20.00;99.90
19174;DHT22;9719;49.322;8.536;2023-05-20T20:15:00;19.90;99.90
19174;DHT22;9719;49.322;8.536;2023-05-20T20:20:03;19.90;99.90
19174;DHT22;9719;49.322;8.536;2023-05-20T20:25:09;19.90;99.90
19174;DHT22;9719;49.322;8.536;2023-05-20T20:30:13;19.80;99.90
19174;DHT22;9719;49.322;8.536;2023-05-20T20:35:16;19.70;99.90
19174;DHT22;9719;49.322;8.536;2023-05-20T20:40:18;19.70;99.90
19174;DHT22;9719;49.322;8.536;2023-05-20T20:45:20;19.50;99.90
19174;DHT22;9719;49.322;8.536;2023-05-20T20:50:24;19.50;99.90
19174;DHT22;9719;49.322;8.536;2023-05-20T20:55:25;19.40;99.90
19174;DHT22;9719;49.322;8.536;2023-05-20T21:00:30;19.40;99.90
19174;DHT22;9719;49.322;8.536;2023-05-20T21:05:34;19.30;99.90
19174;DHT22;9719;49.322;8.536;2023-05-20T21:10:37;19.20;99.90
19174;DHT22;9719;49.322;8.536;2023-05-20T21:15:39;19.20;99.90
19174;DHT22;9719;49.322;8.536;2023-05-20T21:20:43;19.20;99.90
19174;DHT22;9719;49.322;8.536;2023-05-20T21:25:45;19.10;99.90
19174;DHT22;9719;49.322;8.536;2023-05-20T21:30:47;19.10;99.90
19174;DHT22;9719;49.322;8.536;2023-05-20T21:35:50;19.00;99.90
19174;DHT22;9719;49.322;8.536;2023-05-20T21:40:51;19.00;99.90
19174;DHT22;9719;49.322;8.536;2023-05-20T21:45:53;18.90;99.90
19174;DHT22;9719;49.322;8.536;2023-05-20T21:50:56;18.90;99.90
19174;DHT22;9719;49.322;8.536;2023-05-20T21:55:58;18.80;99.90
19174;DHT22;9719;49.322;8.536;2023-05-20T22:00:59;18.70;99.90
19174;DHT22;9719;49.322;8.536;2023-05-20T22:06:03;18.70;99.90
19174;DHT22;9719;49.322;8.536;2023-05-20T22:11:06;18.60;99.90
19174;DHT22;9719;49.322;8.536;2023-05-20T22:16:08;18.60;99.90
19174;DHT22;9719;49.322;8.536;2023-05-20T22:21:11;18.60;99.90
19174;DHT22;9719;49.322;8.536;2023-05-20T22:26:13;18.50;99.90
19174;DHT22;9719;49.322;8.536;2023-05-20T22:31:18;18.40;99.90
19174;DHT22;9719;49.322;8.536;2023-05-20T22:36:22;18.40;99.90
19174;DHT22;9719;49.322;8.536;2023-05-20T22:41:25;18.40;99.90
19174;DHT22;9719;49.322;8.536;2023-05-20T22:46:26;18.40;99.90
19174;DHT22;9719;49.322;8.536;2023-05-20T22:51:29;18.30;99.90
19174;DHT22;9719;49.322;8.536;2023-05-20T22:56:33;18.30;99.90
19174;DHT22;9719;49.322;8.536;2023-05-20T23:01:35;18.30;99.90
19174;DHT22;9719;49.322;8.536;2023-05-20T23:06:38;18.30;99.90
19174;DHT22;9719;49.322;8.536;2023-05-20T23:11:40;18.30;99.90
19174;DHT22;9719;49.322;8.536;2023-05-20T23:16:41;18.20;99.90
19174;DHT22;9719;49.322;8.536;2023-05-20T23:21:44;18.20;99.90
19174;DHT22;9719;49.322;8.536;2023-05-20T23:26:46;18.20;99.90
19174;DHT22;9719;49.322;8.536;2023-05-20T23:31:48;18.20;99.90
19174;DHT22;9719;49.322;8.536;2023-05-20T23:36:51;18.10;99.90
19174;DHT22;9719;49.322;8.536;2023-05-20T23:41:52;18.10;99.90
19174;DHT22;9719;49.322;8.536;2023-05-20T23:46:54;18.10;99.90
19174;DHT22;9719;49.322;8.536;2023-05-20T23:51:57;18.00;99.90
19174;DHT22;9719;49.322;8.536;2023-05-20T23:56:59;18.00;99.90
